createdAt,value
2023-01-17T00:01:46.515Z,64.86
2023-01-17T00:04:31.448Z,64.65
2023-01-17T00:07:16.221Z,65.07
2023-01-17T00:09:54.526Z,65.08
2023-01-17T00:12:21.648Z,65.21
2023-01-17T00:14:48.723Z,64.96
2023-01-17T00:17:15.889Z,65.04
2023-01-17T00:20:01.195Z,65.32
2023-01-17T00:22:48.545Z,65.37
2023-01-17T00:25:38.829Z,65.13
2023-01-17T00:28:06.175Z,65.09
2023-01-17T00:30:32.645Z,65.56
2023-01-17T00:32:59.054Z,65.49
2023-01-17T00:35:27.455Z,65.27
2023-01-17T00:38:06.521Z,65.40
2023-01-17T00:40:34.738Z,65.49
2023-01-17T00:43:20.148Z,65.33
2023-01-17T00:46:05.894Z,65.01
2023-01-17T00:48:51.797Z,64.95
2023-01-17T00:51:37.577Z,65.21
2023-01-17T00:54:23.066Z,65.40
2023-01-17T00:57:07.827Z,65.26
2023-01-17T00:59:52.751Z,65.07
2023-01-17T01:02:37.668Z,65.32
2023-01-17T01:05:23.258Z,64.99
2023-01-17T01:08:08.693Z,65.01
2023-01-17T01:10:53.276Z,65.34
2023-01-17T01:13:42.640Z,65.14
2023-01-17T01:16:27.594Z,64.85
2023-01-17T01:19:12.896Z,65.04
2023-01-17T01:21:57.792Z,64.94
2023-01-17T01:24:42.486Z,64.90
2023-01-17T01:27:27.300Z,65.06
2023-01-17T01:30:12.153Z,64.92
2023-01-17T01:32:56.924Z,65.30
2023-01-17T01:35:23.564Z,65.47
2023-01-17T01:37:49.999Z,65.60
2023-01-17T01:40:18.871Z,65.41
2023-01-17T01:42:57.827Z,65.63
2023-01-17T01:45:27.085Z,65.33
2023-01-17T01:48:07.276Z,65.73
2023-01-17T01:50:36.128Z,64.88
2023-01-17T01:53:05.426Z,65.10
2023-01-17T01:55:39.149Z,64.87
2023-01-17T01:58:14.791Z,64.46
2023-01-17T02:00:42.032Z,65.04
2023-01-17T02:03:13.897Z,64.67
2023-01-17T02:05:42.452Z,64.64
2023-01-17T02:08:11.879Z,64.57
2023-01-17T02:10:40.694Z,64.32
2023-01-17T02:13:09.189Z,64.81
2023-01-17T02:15:57.543Z,64.83
2023-01-17T02:18:55.500Z,64.55
2023-01-17T02:21:25.934Z,64.76
2023-01-17T02:24:38.081Z,64.59
2023-01-17T02:27:07.767Z,64.59
2023-01-17T02:29:52.890Z,64.87
2023-01-17T02:32:50.662Z,64.94
2023-01-17T02:35:28.577Z,65.03
2023-01-17T02:38:32.649Z,65.19
2023-01-17T02:41:05.496Z,64.94
2023-01-17T02:43:32.834Z,65.23
2023-01-17T02:45:59.230Z,65.05
2023-01-17T02:48:30.705Z,65.55
2023-01-17T02:51:12.925Z,65.44
2023-01-17T02:53:53.131Z,65.24
2023-01-17T02:56:32.601Z,64.78
2023-01-17T02:59:17.423Z,65.29
2023-01-17T03:01:46.812Z,64.93
2023-01-17T03:04:24.216Z,64.67
2023-01-17T03:07:09.444Z,65.36
2023-01-17T03:09:37.302Z,64.72
2023-01-17T03:12:04.300Z,64.37
2023-01-17T03:14:31.550Z,64.99
2023-01-17T03:16:58.142Z,64.69
2023-01-17T03:19:24.503Z,64.54
2023-01-17T03:21:50.838Z,65.09
2023-01-17T03:24:17.191Z,64.62
2023-01-17T03:26:47.801Z,64.90
2023-01-17T03:29:16.387Z,64.87
2023-01-17T03:31:42.786Z,65.39
2023-01-17T03:34:09.261Z,65.16
2023-01-17T03:36:35.683Z,65.21
2023-01-17T03:39:02.829Z,65.63
2023-01-17T03:41:29.365Z,65.41
2023-01-17T03:43:55.808Z,65.62
2023-01-17T03:46:28.489Z,65.71
2023-01-17T03:48:54.915Z,65.09
2023-01-17T03:51:21.331Z,64.52
2023-01-17T03:53:47.804Z,64.47
2023-01-17T03:56:14.520Z,64.22
2023-01-17T03:58:41.081Z,64.45
2023-01-17T04:01:07.895Z,64.65
2023-01-17T04:03:34.399Z,65.12
2023-01-17T04:06:00.806Z,65.17
2023-01-17T04:08:27.284Z,65.57
2023-01-17T04:10:53.591Z,65.50
2023-01-17T04:13:19.958Z,66.23
2023-01-17T04:15:48.928Z,66.21
2023-01-17T04:18:18.031Z,66.45
2023-01-17T04:20:44.517Z,66.49
2023-01-17T04:23:10.893Z,66.68
2023-01-17T04:25:37.409Z,66.60
2023-01-17T04:28:04.295Z,66.72
2023-01-17T04:30:32.294Z,66.28
2023-01-17T04:33:00.096Z,66.12
2023-01-17T04:35:26.742Z,66.08
2023-01-17T04:37:53.162Z,65.94
2023-01-17T04:40:19.647Z,66.07
2023-01-17T04:42:46.261Z,66.17
2023-01-17T04:45:13.473Z,66.16
2023-01-17T04:47:40.256Z,65.98
2023-01-17T04:50:07.530Z,66.06
2023-01-17T04:52:33.961Z,66.09
2023-01-17T04:55:00.411Z,66.48
2023-01-17T04:57:27.062Z,66.48
2023-01-17T04:59:53.609Z,66.31
2023-01-17T05:02:20.041Z,66.27
2023-01-17T05:04:46.383Z,66.64
2023-01-17T05:07:13.333Z,66.78
2023-01-17T05:09:39.736Z,66.53
2023-01-17T05:12:06.284Z,66.54
2023-01-17T05:14:34.226Z,66.68
2023-01-17T05:17:00.930Z,67.16
2023-01-17T05:19:27.355Z,66.87
2023-01-17T05:21:53.712Z,66.99
2023-01-17T05:24:20.423Z,67.39
2023-01-17T05:26:54.463Z,67.51
2023-01-17T05:29:21.505Z,67.55
2023-01-17T05:31:47.871Z,67.43
2023-01-17T05:34:14.294Z,67.63
2023-01-17T05:36:41.177Z,67.33
2023-01-17T05:39:07.625Z,67.66
2023-01-17T05:41:33.961Z,67.58
2023-01-17T05:44:00.399Z,67.28
2023-01-17T05:46:26.805Z,67.72
2023-01-17T05:48:53.174Z,67.30
2023-01-17T05:51:19.480Z,67.63
2023-01-17T05:53:45.890Z,67.54
2023-01-17T05:56:12.250Z,67.49
2023-01-17T05:58:39.967Z,67.52
2023-01-17T06:01:06.709Z,67.09
2023-01-17T06:03:33.053Z,67.17
2023-01-17T06:05:59.384Z,67.24
2023-01-17T06:08:25.775Z,67.05
2023-01-17T06:10:52.099Z,67.24
2023-01-17T06:13:21.765Z,67.33
2023-01-17T06:15:48.619Z,67.34
2023-01-17T06:18:16.808Z,67.21
2023-01-17T06:20:43.764Z,67.04
2023-01-17T06:23:12.735Z,66.92
2023-01-17T06:25:43.487Z,66.79
2023-01-17T06:28:11.454Z,66.89
2023-01-17T06:30:37.892Z,66.44
2023-01-17T06:33:05.046Z,66.78
2023-01-17T06:35:31.766Z,66.60
2023-01-17T06:37:59.735Z,66.90
2023-01-17T06:40:27.726Z,66.46
2023-01-17T06:42:54.215Z,66.39
2023-01-17T06:45:21.020Z,66.52
2023-01-17T06:47:47.420Z,66.32
2023-01-17T06:50:14.816Z,66.13
2023-01-17T06:52:41.953Z,66.28
2023-01-17T06:55:09.191Z,66.06
2023-01-17T06:57:35.858Z,66.01
2023-01-17T07:00:03.916Z,66.24
2023-01-17T07:02:30.310Z,66.10
2023-01-17T07:04:56.676Z,66.18
2023-01-17T07:07:23.000Z,65.51
2023-01-17T07:09:49.344Z,65.32
2023-01-17T07:12:15.672Z,65.07
2023-01-17T07:14:42.076Z,64.70
2023-01-17T07:17:08.404Z,64.56
2023-01-17T07:19:34.756Z,64.42
2023-01-17T07:22:01.139Z,64.11
2023-01-17T07:24:27.610Z,64.28
2023-01-17T07:26:53.994Z,64.32
2023-01-17T07:29:20.309Z,64.46
2023-01-17T07:31:48.524Z,64.23
2023-01-17T07:34:14.896Z,64.51
2023-01-17T07:36:41.248Z,64.39
2023-01-17T07:39:10.980Z,64.52
2023-01-17T07:41:41.261Z,65.01
2023-01-17T07:44:08.432Z,64.92
2023-01-17T07:46:34.791Z,64.77
2023-01-17T07:49:01.463Z,65.17
2023-01-17T07:51:27.839Z,65.33
2023-01-17T07:53:54.197Z,65.38
2023-01-17T07:56:20.583Z,65.89
2023-01-17T07:58:48.418Z,66.30
2023-01-17T08:01:15.497Z,66.48
2023-01-17T08:03:42.350Z,66.56
2023-01-17T08:06:22.203Z,66.50
2023-01-17T08:08:48.794Z,66.37
2023-01-17T08:11:15.259Z,66.33
2023-01-17T08:13:42.008Z,66.29
2023-01-17T08:16:10.362Z,66.26
2023-01-17T08:18:36.786Z,66.28
2023-01-17T08:21:03.835Z,66.00
2023-01-17T08:23:31.491Z,65.81
2023-01-17T08:26:01.893Z,66.06
2023-01-17T08:28:28.325Z,66.37
2023-01-17T08:30:54.698Z,66.46
2023-01-17T08:33:21.041Z,66.82
2023-01-17T08:35:54.427Z,66.72
2023-01-17T08:38:23.556Z,67.04
2023-01-17T08:40:50.904Z,66.65
2023-01-17T08:43:17.452Z,66.28
2023-01-17T08:45:48.394Z,66.25
2023-01-17T08:48:15.600Z,66.18
2023-01-17T08:50:41.968Z,66.60
2023-01-17T08:53:08.323Z,66.34
2023-01-17T08:55:39.384Z,66.32
2023-01-17T08:58:05.713Z,66.31
2023-01-17T09:00:32.534Z,66.13
2023-01-17T09:02:59.363Z,66.11
2023-01-17T09:05:25.740Z,66.21
2023-01-17T09:07:52.143Z,66.01
2023-01-17T09:10:18.794Z,65.87
2023-01-17T09:12:45.133Z,65.69
2023-01-17T09:15:14.576Z,65.22
2023-01-17T09:17:40.930Z,64.84
2023-01-17T09:20:08.173Z,65.21
2023-01-17T09:22:35.915Z,65.07
2023-01-17T09:25:02.254Z,65.13
2023-01-17T09:27:28.579Z,65.00
2023-01-17T09:29:54.931Z,65.11
2023-01-17T09:32:21.298Z,65.35
2023-01-17T09:34:47.685Z,65.01
2023-01-17T09:37:14.022Z,65.30
2023-01-17T09:39:40.328Z,64.84
2023-01-17T09:42:21.830Z,64.40
2023-01-17T09:44:52.175Z,64.70
2023-01-17T09:47:43.470Z,64.37
2023-01-17T09:50:39.395Z,64.39
2023-01-17T09:53:12.459Z,64.66
2023-01-17T09:55:54.975Z,65.03
2023-01-17T09:58:32.324Z,64.33
2023-01-17T10:01:24.189Z,63.59
2023-01-17T10:04:11.722Z,63.73
2023-01-17T10:06:44.150Z,63.49
2023-01-17T10:09:22.841Z,63.32
2023-01-17T10:12:30.696Z,64.13
2023-01-17T10:15:32.097Z,63.94
2023-01-17T10:18:04.498Z,63.80
2023-01-17T10:20:50.644Z,63.63
2023-01-17T10:23:25.969Z,64.02
2023-01-17T10:25:56.289Z,63.69
2023-01-17T10:28:30.696Z,63.32
2023-01-17T10:31:25.464Z,63.38
2023-01-17T10:33:54.930Z,63.04
2023-01-17T10:36:47.182Z,62.87
2023-01-17T10:39:22.420Z,63.56
2023-01-17T10:42:02.797Z,63.69
2023-01-17T10:44:55.091Z,63.15
2023-01-17T10:47:23.712Z,63.54
2023-01-17T10:49:57.770Z,62.89
2023-01-17T10:52:34.649Z,62.87
2023-01-17T10:55:19.493Z,62.62
2023-01-17T10:57:48.544Z,62.07
2023-01-17T11:00:39.852Z,62.24
2023-01-17T11:03:06.913Z,61.69
2023-01-17T11:05:33.807Z,61.43
2023-01-17T11:08:06.312Z,61.54
2023-01-17T11:10:43.039Z,61.88
2023-01-17T11:13:26.559Z,61.72
2023-01-17T11:15:57.530Z,61.96
2023-01-17T11:18:28.103Z,62.16
2023-01-17T11:21:09.450Z,61.96
2023-01-17T11:23:36.020Z,61.48
2023-01-17T11:26:16.557Z,60.99
2023-01-17T11:28:42.933Z,60.93
2023-01-17T11:31:29.477Z,60.76
2023-01-17T11:34:23.858Z,60.55
2023-01-17T11:37:08.492Z,61.06
2023-01-17T11:39:35.163Z,60.90
2023-01-17T11:42:06.232Z,60.75
2023-01-17T11:44:35.708Z,60.96
2023-01-17T11:47:09.537Z,61.23
2023-01-17T11:49:36.239Z,60.49
2023-01-17T11:52:33.320Z,60.36
2023-01-17T11:54:59.884Z,60.05
2023-01-17T11:57:29.440Z,59.98
2023-01-17T12:00:11.862Z,60.11
2023-01-17T12:03:04.845Z,60.02
2023-01-17T12:05:48.140Z,60.47
2023-01-17T12:08:46.303Z,60.59
2023-01-17T12:12:00.719Z,60.94
2023-01-17T12:14:40.378Z,60.42
2023-01-17T12:17:42.221Z,60.26
2023-01-17T12:20:21.266Z,59.07
2023-01-17T12:23:01.549Z,59.29
2023-01-17T12:25:39.708Z,59.12
2023-01-17T12:28:27.378Z,58.68
2023-01-17T12:31:14.318Z,58.69
2023-01-17T12:33:47.343Z,58.26
2023-01-17T12:36:34.924Z,58.26
2023-01-17T12:39:05.740Z,57.47
2023-01-17T12:41:38.426Z,57.90
2023-01-17T12:44:05.371Z,58.06
2023-01-17T12:46:40.617Z,57.89
2023-01-17T12:49:41.478Z,58.22
2023-01-17T12:52:19.993Z,58.13
2023-01-17T12:54:53.150Z,58.14
2023-01-17T12:57:27.188Z,57.74
2023-01-17T13:00:03.578Z,58.29
2023-01-17T13:02:56.633Z,58.39
2023-01-17T13:05:45.855Z,58.65
2023-01-17T13:08:38.738Z,58.42
2023-01-17T13:11:14.274Z,58.70
2023-01-17T13:13:41.236Z,58.03
2023-01-17T13:16:19.856Z,57.69
2023-01-17T13:18:48.595Z,57.58
2023-01-17T13:21:23.977Z,57.82
2023-01-17T13:23:59.445Z,58.00
2023-01-17T13:26:53.772Z,57.75
2023-01-17T13:29:56.583Z,56.85
2023-01-17T13:33:01.501Z,57.31
2023-01-17T13:35:42.636Z,57.48
2023-01-17T13:38:15.634Z,56.94
2023-01-17T13:40:50.282Z,56.98
2023-01-17T13:43:28.216Z,57.00
2023-01-17T13:46:01.316Z,56.62
2023-01-17T13:48:31.113Z,56.69
2023-01-17T13:50:59.601Z,57.19
2023-01-17T13:53:28.807Z,56.60
2023-01-17T13:56:18.447Z,56.71
2023-01-17T13:58:51.655Z,56.47
2023-01-17T14:01:24.305Z,56.28
2023-01-17T14:03:53.482Z,55.92
2023-01-17T14:06:40.624Z,56.09
2023-01-17T14:09:12.772Z,56.06
2023-01-17T14:12:05.856Z,56.18
2023-01-17T14:14:41.504Z,56.48
2023-01-17T14:17:23.456Z,56.46
2023-01-17T14:20:06.463Z,56.03
2023-01-17T14:22:41.484Z,56.36
2023-01-17T14:25:20.021Z,56.17
2023-01-17T14:27:53.210Z,56.73
2023-01-17T14:30:31.822Z,56.95
2023-01-17T14:33:01.292Z,57.24
2023-01-17T14:35:30.955Z,57.30
2023-01-17T14:38:05.613Z,57.11
2023-01-17T14:40:34.110Z,57.31
2023-01-17T14:43:02.699Z,57.60
2023-01-17T14:45:32.050Z,57.58
2023-01-17T14:48:00.825Z,57.75
2023-01-17T14:50:38.317Z,57.54
2023-01-17T14:53:13.784Z,57.81
2023-01-17T14:55:52.158Z,57.86
2023-01-17T14:58:21.096Z,58.40
2023-01-17T15:00:50.067Z,58.68
2023-01-17T15:03:16.916Z,58.67
2023-01-17T15:05:46.909Z,58.85
2023-01-17T15:08:16.984Z,59.25
2023-01-17T15:11:02.905Z,59.77
2023-01-17T15:13:44.381Z,59.27
2023-01-17T15:16:28.055Z,59.57
2023-01-17T15:18:55.745Z,59.44
2023-01-17T15:21:26.334Z,59.02
2023-01-17T15:23:59.292Z,59.21
2023-01-17T15:26:28.564Z,58.89
2023-01-17T15:29:04.074Z,58.83
2023-01-17T15:31:44.467Z,59.23
2023-01-17T15:34:38.633Z,58.99
2023-01-17T15:37:23.142Z,58.98
2023-01-17T15:39:49.803Z,58.73
2023-01-17T15:42:23.717Z,58.65
2023-01-17T15:44:55.903Z,58.96
2023-01-17T15:47:32.928Z,59.05
2023-01-17T15:50:01.445Z,58.84
2023-01-17T15:52:28.884Z,59.32
2023-01-17T15:55:10.732Z,59.55
2023-01-17T15:57:38.799Z,59.24
2023-01-17T16:00:20.708Z,59.29
2023-01-17T16:02:55.236Z,59.46
2023-01-17T16:05:21.900Z,59.41
2023-01-17T16:08:18.527Z,59.62
2023-01-17T16:10:45.051Z,59.59
2023-01-17T16:13:13.521Z,59.72
2023-01-17T16:15:41.426Z,59.78
2023-01-17T16:18:16.472Z,59.85
2023-01-17T16:20:58.787Z,60.40
2023-01-17T16:23:25.770Z,60.50
2023-01-17T16:25:53.885Z,60.24
2023-01-17T16:28:20.784Z,60.40
2023-01-17T16:30:48.544Z,60.58
2023-01-17T16:33:15.734Z,60.91
2023-01-17T16:35:42.965Z,61.02
2023-01-17T16:38:15.459Z,61.05
2023-01-17T16:40:44.412Z,61.07
2023-01-17T16:43:12.129Z,61.06
2023-01-17T16:45:44.865Z,60.99
2023-01-17T16:48:14.138Z,61.01
2023-01-17T16:50:42.577Z,60.79
2023-01-17T16:53:08.921Z,61.19
2023-01-17T16:55:35.386Z,61.20
2023-01-17T16:58:01.755Z,61.30
2023-01-17T17:00:28.077Z,61.11
2023-01-17T17:02:54.948Z,61.60
2023-01-17T17:05:21.569Z,61.67
2023-01-17T17:07:50.728Z,61.57
2023-01-17T17:10:19.760Z,61.42
2023-01-17T17:12:46.651Z,61.62
2023-01-17T17:15:13.623Z,62.03
2023-01-17T17:17:41.704Z,62.33
2023-01-17T17:20:13.581Z,62.17
2023-01-17T17:22:49.125Z,62.52
2023-01-17T17:25:15.886Z,62.41
2023-01-17T17:27:42.306Z,62.28
2023-01-17T17:30:09.575Z,62.26
2023-01-17T17:32:35.910Z,62.08
2023-01-17T17:35:02.293Z,62.24
2023-01-17T17:37:29.078Z,62.10
2023-01-17T17:39:56.251Z,61.84
2023-01-17T17:42:23.166Z,62.27
2023-01-17T17:44:49.559Z,62.22
2023-01-17T17:47:16.301Z,61.91
2023-01-17T17:49:43.388Z,62.05
2023-01-17T17:52:09.852Z,62.00
2023-01-17T17:54:36.426Z,62.08
2023-01-17T17:57:03.215Z,62.50
2023-01-17T17:59:31.000Z,62.30
2023-01-17T18:01:58.686Z,62.33
2023-01-17T18:04:25.467Z,62.30
2023-01-17T18:06:56.950Z,62.21
2023-01-17T18:09:23.659Z,62.45
2023-01-17T18:11:50.047Z,62.25
2023-01-17T18:14:17.627Z,62.66
2023-01-17T18:16:44.775Z,62.61
2023-01-17T18:19:15.453Z,62.60
2023-01-17T18:21:42.156Z,62.63
2023-01-17T18:24:11.366Z,62.60
2023-01-17T18:26:50.723Z,62.68
2023-01-17T18:29:19.573Z,62.69
2023-01-17T18:31:47.297Z,62.82
2023-01-17T18:34:16.124Z,62.87
2023-01-17T18:36:43.387Z,63.06
2023-01-17T18:39:15.473Z,62.89
2023-01-17T18:41:41.854Z,63.04
2023-01-17T18:44:08.508Z,63.01
2023-01-17T18:46:35.826Z,63.01
2023-01-17T18:49:03.634Z,63.37
2023-01-17T18:51:32.613Z,63.40
2023-01-17T18:54:02.762Z,63.05
2023-01-17T18:56:31.937Z,63.49
2023-01-17T18:58:58.401Z,63.45
2023-01-17T19:01:27.516Z,63.08
2023-01-17T19:03:57.630Z,63.21
2023-01-17T19:06:30.354Z,63.27
2023-01-17T19:08:58.624Z,63.36
2023-01-17T19:11:25.339Z,63.14
2023-01-17T19:13:53.099Z,63.45
2023-01-17T19:16:25.520Z,63.40
2023-01-17T19:18:52.621Z,63.40
2023-01-17T19:21:21.616Z,63.59
2023-01-17T19:23:49.215Z,63.55
2023-01-17T19:26:17.120Z,63.91
2023-01-17T19:28:45.474Z,63.87
2023-01-17T19:31:14.731Z,64.20
2023-01-17T19:33:44.089Z,63.99
2023-01-17T19:36:17.149Z,63.85
2023-01-17T19:38:52.290Z,63.96
2023-01-17T19:41:27.234Z,63.99
2023-01-17T19:43:55.951Z,63.61
2023-01-17T19:46:26.113Z,63.91
2023-01-17T19:48:53.772Z,64.10
2023-01-17T19:51:20.678Z,64.27
2023-01-17T19:53:47.129Z,64.23
2023-01-17T19:56:16.308Z,64.24
2023-01-17T19:58:44.341Z,63.90
2023-01-17T20:01:15.007Z,63.97
2023-01-17T20:03:44.277Z,64.33
2023-01-17T20:06:12.442Z,64.26
2023-01-17T20:08:38.805Z,64.32
2023-01-17T20:11:07.398Z,64.33
2023-01-17T20:13:33.998Z,64.17
2023-01-17T20:16:05.679Z,63.90
2023-01-17T20:18:33.044Z,63.91
2023-01-17T20:21:07.318Z,64.28
2023-01-17T20:23:42.865Z,64.44
2023-01-17T20:26:14.445Z,64.51
2023-01-17T20:28:42.585Z,64.64
2023-01-17T20:31:17.075Z,64.44
2023-01-17T20:33:45.259Z,64.20
2023-01-17T20:36:14.855Z,64.47
2023-01-17T20:38:45.786Z,64.39
2023-01-17T20:41:21.270Z,64.39
2023-01-17T20:43:48.835Z,64.38
2023-01-17T20:46:17.698Z,63.87
2023-01-17T20:48:49.095Z,64.12
2023-01-17T20:51:15.780Z,64.08
2023-01-17T20:53:43.411Z,64.13
2023-01-17T20:56:14.184Z,64.59
2023-01-17T20:58:40.830Z,64.72
2023-01-17T21:01:09.574Z,64.71
2023-01-17T21:03:37.550Z,64.68
2023-01-17T21:06:06.735Z,64.83
2023-01-17T21:08:37.060Z,64.59
2023-01-17T21:11:04.755Z,64.53
2023-01-17T21:13:31.665Z,64.65
2023-01-17T21:15:58.378Z,64.81
2023-01-17T21:18:26.405Z,65.23
2023-01-17T21:20:52.915Z,65.13
2023-01-17T21:23:20.082Z,65.08
2023-01-17T21:25:49.340Z,65.33
2023-01-17T21:28:15.744Z,65.26
2023-01-17T21:30:42.106Z,65.03
2023-01-17T21:33:08.506Z,65.39
2023-01-17T21:35:34.870Z,64.85
2023-01-17T21:38:01.252Z,64.88
2023-01-17T21:40:27.642Z,64.86
2023-01-17T21:42:54.108Z,64.98
2023-01-17T21:45:20.584Z,64.88
2023-01-17T21:47:49.875Z,64.76
2023-01-17T21:50:32.259Z,64.84
2023-01-17T21:52:59.462Z,64.65
2023-01-17T21:55:44.705Z,65.27
2023-01-17T21:58:31.577Z,65.16
2023-01-17T22:01:07.815Z,65.28
2023-01-17T22:03:35.670Z,65.39
2023-01-17T22:06:02.197Z,65.21
2023-01-17T22:08:37.971Z,65.40
2023-01-17T22:11:10.867Z,65.02
2023-01-17T22:13:39.214Z,65.16
2023-01-17T22:16:08.634Z,65.39
2023-01-17T22:18:37.133Z,65.33
2023-01-17T22:21:24.344Z,65.94
2023-01-17T22:23:53.343Z,66.14
2023-01-17T22:26:25.171Z,65.94
2023-01-17T22:28:52.348Z,65.55
2023-01-17T22:31:26.978Z,65.58
2023-01-17T22:33:55.889Z,65.40
2023-01-17T22:36:23.115Z,65.22
2023-01-17T22:38:50.572Z,65.37
2023-01-17T22:41:20.477Z,65.53
2023-01-17T22:43:49.501Z,65.42
2023-01-17T22:46:21.584Z,65.29
2023-01-17T22:48:48.589Z,65.30
2023-01-17T22:51:17.078Z,65.20
2023-01-17T22:53:45.781Z,65.01
2023-01-17T22:56:14.666Z,65.03
2023-01-17T22:58:44.571Z,64.62
2023-01-17T23:01:13.991Z,64.93
2023-01-17T23:03:41.618Z,64.75
2023-01-17T23:06:12.883Z,64.66
2023-01-17T23:08:41.184Z,64.90
2023-01-17T23:11:38.861Z,64.85
2023-01-17T23:14:16.956Z,64.29
2023-01-17T23:17:04.580Z,64.90
2023-01-17T23:19:36.651Z,64.70
2023-01-17T23:22:20.282Z,64.41
2023-01-17T23:24:55.686Z,64.58
2023-01-17T23:27:45.817Z,65.29
2023-01-17T23:30:39.331Z,64.51
2023-01-17T23:33:17.071Z,64.30
2023-01-17T23:35:45.686Z,64.38
2023-01-17T23:38:26.061Z,64.39
2023-01-17T23:41:12.104Z,64.93
2023-01-17T23:43:38.526Z,64.64
2023-01-17T23:46:05.263Z,64.95
2023-01-17T23:48:31.936Z,65.36
2023-01-17T23:51:00.220Z,64.99
2023-01-17T23:53:27.357Z,64.95
2023-01-17T23:55:56.329Z,65.00
2023-01-17T23:58:25.529Z,64.89
